Nearby AIRPORT Reports

 

KATT - Austin/Mabry, Texas, USA
Distance from station: NE 13mi, 20km
Updated: Tue, 09-Aug-2022 12:51pm CDT
NOT Current
Few Clouds
Few Clouds
 Wind from calm
Wind: Calm
Temperature: 95°F , 35°C
Dew Point: 66°F , 19°C
Humidity: 39%
Barometer: 30.08 inHg , 1018.6 hPa
Clouds: Few Clouds
Visibility: 10 miles , 16 km
Cloud details: Few Clouds 5000 ft
2022/08/09 17:51 KATT 091751Z AUTO 00000KT 10SM FEW050 35/19 A3008 RMK AO2 SLP169 T03500194 10361 20244 58006
KAUS - Austin/Bergstrom, Texas, USA
Distance from station: E 15mi, 25km
Updated: Tue, 09-Aug-2022 1:53pm CDT
Partly cloudy
Partly cloudy
 Wind from SSW
Wind: SSW 7 mph , 11 km/h
Temperature: 95°F , 35°C
Dew Point: 66°F , 19°C
Humidity: 39%
Barometer: 30.03 inHg , 1016.9 hPa
Clouds: Partly cloudy
Visibility: 10 miles , 16 km
Cloud details: Partly cloudy 6000 ft
2022/08/09 18:53 KAUS 091853Z 21006KT 10SM SCT060 35/19 A3003 RMK AO2 SLP157 T03500189
 
KHYI - San Marcos, Texas, USA
Distance from station: S 23mi, 37km
Updated: Tue, 09-Aug-2022 1:56pm CDT
Few Clouds
Few Clouds
 Wind from SSW
Wind: SSW 7 mph , 11 km/h
Temperature: 97°F , 36°C
Dew Point: 66°F , 19°C
Humidity: 37%
Barometer: 30.06 inHg , 1017.9 hPa
Clouds: Few Clouds
Visibility: 8 miles , 13 km
Cloud details: Few Clouds 5500 ft
2022/08/09 18:56 KHYI 091856Z 21006KT 8SM FEW055 36/19 A3006 RMK AO2 SLP166 T03560194
KGTU - Georgetown, Texas, USA
Distance from station: NNE 36mi, 58km
Updated: Tue, 09-Aug-2022 1:56pm CDT
Few Clouds
Few Clouds
 Wind from varies
Wind: varies 3 mph , 6 km/h
Temperature: 93°F , 34°C
Dew Point: 64°F , 18°C
Humidity: 39%
Barometer: 30.07 inHg , 1018.3 hPa
Clouds: Few Clouds
Visibility: 10 miles , 16 km
Cloud details: Few Clouds 6000 ft
2022/08/09 18:56 KGTU 091856Z VRB03KT 10SM FEW060 34/18 A3007 RMK AO2 SLP172 T03440183
 
KBMQ - Burnet, Texas, USA
Distance from station: NNW 40mi, 65km
Updated: Tue, 09-Aug-2022 1:53pm CDT
Few Clouds
Few Clouds
 Wind from SSW
Wind: SSW 10 mph , 17 km/h
Temperature: 95°F , 35°C
Dew Point: 63°F , 17°C
Humidity: 34%
Barometer: 30.08 inHg , 1018.6 hPa
Clouds: Few Clouds
Visibility: 10 miles , 16 km
Cloud details: Few Clouds 6500 ft
2022/08/09 18:53 KBMQ 091853Z AUTO 20009KT 10SM FEW065 35/17 A3008 RMK AO2 SLP166 T03500172
KT82 - Fredericksburg, Texas, USA
Distance from station: W 59mi, 94km
Updated: Tue, 09-Aug-2022 2:35pm CDT
Partly cloudy
Partly cloudy
 Wind from ESE
Wind: ESE 7 mph , 11 km/h
Temperature: 93°F , 34°C
Dew Point: 63°F , 17°C
Humidity: 36%
Barometer: 30.08 inHg , 1018.6 hPa
Clouds: Partly cloudy
Visibility: 10 miles , 16 km
Cloud details: Partly cloudy 6500 ft
2022/08/09 19:35 KT82 091935Z AUTO 12006KT 10SM SCT065 34/17 A3008 RMK AO2 T03350165
 
KGTU - Georgetown, Texas, USA
Distance from station: NNE 36mi, 58km
Updated: Tue, 09-Aug-2022 1:56pm CDT
Few Clouds
Few Clouds
 Wind from varies
Wind: varies 3 mph , 6 km/h
Temperature: 93°F , 34°C
Dew Point: 64°F , 18°C
Humidity: 39%
Barometer: 30.07 inHg , 1018.3 hPa
Clouds: Few Clouds
Visibility: 10 miles , 16 km
Cloud details: Few Clouds 6000 ft
2022/08/09 18:56 KGTU 091856Z VRB03KT 10SM FEW060 34/18 A3007 RMK AO2 SLP172 T03440183
KAQO - Llano, Texas, USA
Distance from station: NW 59mi, 95km
Updated: Tue, 09-Aug-2022 2:35pm CDT
Few Clouds
Few Clouds
 Wind from varies
Wind: varies 6 mph , 9 km/h, Gust: 14 mph , 22 km/h
Temperature: 99°F , 37°C
Dew Point: 61°F , 16°C
Humidity: 29%
Barometer: 30.03 inHg , 1016.9 hPa
Clouds: Few Clouds
Visibility: 10 miles , 16 km
Cloud details: Few Clouds 7500 ft
2022/08/09 19:35 KAQO 091935Z AUTO VRB05G12KT 10SM FEW075 37/16 A3003 RMK AO2
 
KERV - Kerrville, Texas, USA
Distance from station: WSW 70mi, 113km
Updated: Tue, 09-Aug-2022 2:35pm CDT
Clear
Clear
 Wind from SSE
Wind: SSE 6 mph , 9 km/h, Gust: 9 mph , 15 km/h
Temperature: 95°F , 35°C
Dew Point: 63°F , 17°C
Humidity: 34%
Barometer: 30.07 inHg , 1018.3 hPa
Clouds: Clear
Visibility: 10 miles , 16 km
2022/08/09 19:35 KERV 091935Z AUTO 16005G08KT 10SM CLR 35/17 A3007 RMK AO2 T03450167
KSAT - San Antonio, Texas, USA
Distance from station: SW 56mi, 91km
Updated: Tue, 09-Aug-2022 1:51pm CDT
Mostly cloudy
Mostly cloudy
 
Temperature: 91°F , 33°C
Heat Index: 94°F , 34°C
Dew Point: 66°F , 19°C
Humidity: 44%
Barometer: 30.06 inHg , 1017.9 hPa
Clouds: Mostly cloudy
Visibility: 10 miles , 16 km
Cloud details: Mostly cloudy 6000 ft
2022/08/09 18:51 KSAT 091851Z 10SM BKN060 33/19 A3006 RMK AO2 SLP160 T03330189
 
K11R - Brenham, Texas, USA
Distance from station: E 94mi, 151km
Updated: Tue, 09-Aug-2022 2:35pm CDT
Partly cloudy
Partly cloudy
 Wind from SSE
Wind: SSE 6 mph , 9 km/h
Temperature: 99°F , 37°C
Dew Point: 70°F , 21°C
Humidity: 39%
Barometer: 30.01 inHg , 1016.3 hPa
Clouds: Partly cloudy
Visibility: 10 miles , 16 km
Cloud details: Partly cloudy 5500 ft
2022/08/09 19:35 K11R 091935Z AUTO 16005KT 10SM SCT055 37/21 A3001 RMK AO2 T03710211
KTME - Houston Exec, Texas, USA
Distance from station: ESE 125mi, 201km
Updated: Tue, 09-Aug-2022 2:35pm CDT
Haze, Clear
Haze, Clear
 Wind from ESE
Wind: ESE 8 mph , 13 km/h, Gust: 15 mph , 24 km/h
Temperature: 97°F , 36°C
Heat Index: 104°F , 40°C
Dew Point: 70°F , 21°C
Humidity: 42%
Barometer: 30.01 inHg , 1016.3 hPa
Summary: Haze
Clouds: Clear
Visibility: 6 miles , 10 km
2022/08/09 19:35 KTME 091935Z AUTO 11007G13KT 6SM HZ CLR 36/21 A3001 RMK AO2